Aérodrome :
LOGIN :

S'inscrire | Disclaimer

   EN    FR    IT 

 










Légende :    VFR   VFR Marginal   IFR   IFR Intensif   IFR Très Intensif
Visi : 
Plafond : 
>= 8 km
>= 3000ft
5 à 8 km
1000 à 3000 ft
1500m à 5 km
500 à 1000 ft
800 à 1500m
200 à 500 ft
< 800m
< 200 ft
Symboles :   Orages  Brouillard  Fortes neiges  Fortes précipitations  Vent > 20 kt
SIGMETs :   Divers  Orages  Givrage  Turbulence  Onde Orograph.  Cendres Volcan.






- Altitude de l'aérodrome : 1521 ft
- Code IATA : NCY


LFLP - Annecy

DERNIER METAR :
  • 131530Z AUTO 23006KT 200V270 CAVOK 23/11 Q1014 NOSIG

METARs EXPIRÉS :
  • 131500Z AUTO VRB04KT 9999 FEW047 BKN200 24/13 Q1014 NOSIG
  • 131430Z AUTO 31005KT 250V350 9999 FEW052 BKN210 BKN230 23/12 Q1014 NOSIG
  • 131400Z AUTO 26005KT 210V320 9999 NCD 23/11 Q1014 NOSIG
  • 131330Z AUTO VRB03KT 9999 NCD 23/10 Q1014 NOSIG
  • 131300Z AUTO 30003KT 220V360 9999 FEW052 23/10 Q1014 NOSIG
  • 131230Z AUTO 26004KT 210V330 9999 FEW054 23/10 Q1014 NOSIG
  • 131200Z AUTO VRB02KT CAVOK 22/09 Q1014 NOSIG
  • 131130Z AUTO 26004KT 180V320 9999 NCD 21/10 Q1014 NOSIG
  • 131100Z AUTO 25005KT 190V300 CAVOK 21/09 Q1014 NOSIG

TAF TAF LFLP
Valide du 13 à 15h jusqu'au 14 à 15h UTC


131400Z 1315/1415 VRB05KT CAVOK



MET'MAP, la Météo Aéronautique d'un coup d'oeil ! - Copyright ORBIFLY Décembre 2007 - Disclaimer

ORBIFLY MET'MAP TEAM :

Programmation & Développement : Alexandra Zaïnal
Sur une idée originale de : Baudouin d'Aumeries
Soutien technique & logistique : Manuel Goepfert
Assistance : Marc-Olivier Méhu




SOURCES & CREDITS :

   NOAA